tititudorancea.com
Station Historical Data
Daily Summary for Nil La, TWC- Units:  Metric    English   Both
« Previous Day
Next Day »
Daily Weekly Monthly Yearly Custom
  High: Low: Average:
Temperature: -17.8 °C 10.9 °C 18.2 °C
Dew Point: -17.8 °C 9.2 °C 10.4 °C
Humidity: Humidity % 28 % 66 %
Wind Speed: 0 km/h 0 km/h 11.1 km/h
Wind Gust: 0 km/h - -
Wind:- - SE
Pressure: 0 hPa 1020.5 hPa -
Precipitation: 0 mm    
Historical Graphs
 
 
Ararat weather Find more about Weather in Ararat, AU


 



 


Tabular Data for Nil La, TWC-
Time Temperature Dew Point Pressure Wind Wind Speed Wind Gust Humidity Rainfall Rate (Hourly)
-17.8 °C -17.8 °C 0 hPa Calm     Humidity % 0 mm
00:04 17.7 °C 12.2 °C 1021.2 hPa SE 13 km/h 5.1 km/h 70 % 0 mm
00:09 17.7 °C 12.1 °C 1021.2 hPa SE 14.8 km/h 7.7 km/h 70 % 0 mm
00:14 17.6 °C 12.1 °C 1021.2 hPa SE 13 km/h 6.9 km/h 70 % 0 mm
00:19 17.6 °C 12.1 °C 1021.2 hPa SE 11.1 km/h 4.3 km/h 70 % 0 mm
00:24 17.6 °C 12 °C 1021.2 hPa SE 8 km/h 7.4 km/h 70 % 0 mm
00:29 17.5 °C 11.9 °C 1021.2 hPa SE 16.7 km/h 9.8 km/h 70 % 0 mm
00:34 17.4 °C 11.8 °C 1021.2 hPa SE 14.8 km/h 6.4 km/h 70 % 0 mm
00:39 17.3 °C 11.8 °C 1021.2 hPa SE 8 km/h 5.1 km/h 70 % 0 mm
00:44 17.3 °C 11.8 °C 1021.2 hPa SSE 11.1 km/h 8 km/h 70 % 0 mm
00:49 17.3 °C 11.8 °C 1021.2 hPa SSE 9.7 km/h 6.8 km/h 70 % 0 mm
00:54 17.2 °C 11.7 °C 1021.2 hPa SSE 11.1 km/h 5.1 km/h 70 % 0 mm
00:59 17.1 °C 11.8 °C 1021.2 hPa SSE 7.4 km/h 5.1 km/h 71 % 0 mm
01:04 17 °C 11.7 °C 1021.2 hPa SSE 11.1 km/h 6.6 km/h 71 % 0 mm
01:09 16.9 °C 11.7 °C 1020.9 hPa SSE 9.7 km/h 8.5 km/h 71 % 0 mm
01:14 16.9 °C 11.6 °C 1020.9 hPa SSE 11.1 km/h 8.4 km/h 71 % 0 mm
01:19 16.8 °C 11.6 °C 1021.2 hPa SSE 7.4 km/h 7.9 km/h 71 % 0 mm
01:24 16.8 °C 11.5 °C 1021.2 hPa SSE 9.3 km/h 9 km/h 71 % 0 mm
01:29 16.7 °C 11.4 °C 1021.2 hPa SSE 11.1 km/h 8.4 km/h 71 % 0 mm
01:34 16.6 °C 11.5 °C 1021.2 hPa SSE 7.4 km/h 3.5 km/h 72 % 0 mm
01:39 16.4 °C 11.4 °C 1020.9 hPa SSE 11.1 km/h 8.5 km/h 72 % 0 mm
01:44 16.3 °C 11.5 °C 1020.9 hPa SSE 11.1 km/h 8.2 km/h 73 % 0 mm
01:49 16.3 °C 11.4 °C 1021.2 hPa SSE 7.4 km/h 5.3 km/h 73 % 0 mm
01:54 16.2 °C 11.4 °C 1020.9 hPa SSE 11.1 km/h 4.2 km/h 73 % 0 mm
01:59 16.2 °C 11.3 °C 1020.9 hPa SSE 11.1 km/h 7.2 km/h 73 % 0 mm
02:04 16.2 °C 11.3 °C 1020.9 hPa SSE 11.1 km/h 9 km/h 73 % 0 mm
02:09 16.1 °C 11.3 °C 1020.9 hPa SSE 8 km/h 7.2 km/h 73 % 0 mm
02:14 16.1 °C 11.3 °C 1020.9 hPa SSE 9.3 km/h 6.1 km/h 73 % 0 mm
02:19 16 °C 11.4 °C 1020.9 hPa SSE 7.4 km/h 3.2 km/h 74 % 0 mm
02:24 15.8 °C 11.2 °C 1020.9 hPa SSE 7.4 km/h 6.8 km/h 74 % 0 mm
02:29 15.7 °C 11.3 °C 1020.9 hPa SSE 9.3 km/h 5.5 km/h 75 % 0 mm
02:34 15.5 °C 11.3 °C 1020.5 hPa SSE 11.1 km/h 3.9 km/h 76 % 0 mm
02:39 15.3 °C 11.3 °C 1020.9 hPa SSE 7.4 km/h 7.4 km/h 77 % 0 mm
02:44 15.2 °C 11.3 °C 1020.5 hPa SSE 9.3 km/h 4.8 km/h 78 % 0 mm
02:49 15.1 °C 11.4 °C 1020.9 hPa SSE 7.4 km/h 6.6 km/h 79 % 0 mm
02:54 14.9 °C 11.3 °C 1020.9 hPa SSE 9.3 km/h 7.6 km/h 79 % 0 mm
02:59 14.8 °C 11.3 °C 1020.9 hPa SSE 11.1 km/h 4.2 km/h 80 % 0 mm
03:04 14.7 °C 11.3 °C 1020.9 hPa SSE 9.7 km/h 5.5 km/h 80 % 0 mm
03:09 14.6 °C 11.4 °C 1020.9 hPa SSE 7.4 km/h 5.5 km/h 81 % 0 mm
03:14 14.6 °C 11.3 °C 1020.9 hPa SSE 8 km/h 6.1 km/h 81 % 0 mm
03:19 14.4 °C 11.2 °C 1020.5 hPa SSE 7.4 km/h 5.1 km/h 81 % 0 mm
03:24 14.4 °C 11.4 °C 1020.5 hPa SSE 9.3 km/h 5.1 km/h 82 % 0 mm
03:29 14.4 °C 11.3 °C 1020.5 hPa SSE 7.4 km/h 2.1 km/h 82 % 0 mm
03:34 14.3 °C 11.2 °C 1020.5 hPa SSE 5.6 km/h 1 km/h 82 % 0 mm
03:39 14.2 °C 11.2 °C 1020.5 hPa SSE 3.2 km/h 2.6 km/h 82 % 0 mm
03:44 14.1 °C 11.1 °C 1020.5 hPa SSE 1.9 km/h 0.2 km/h 82 % 0 mm
03:49 13.9 °C 10.9 °C 1020.9 hPa SSE 3.7 km/h   82 % 0 mm
03:54 13.8 °C 10.9 °C 1020.5 hPa SSE 3.7 km/h 2.7 km/h 83 % 0 mm
03:59 13.7 °C 10.8 °C 1020.9 hPa SSE 5.6 km/h 2.4 km/h 83 % 0 mm
04:04 13.6 °C 10.9 °C 1020.9 hPa SSE 1.9 km/h 1.1 km/h 84 % 0 mm
04:09 13.5 °C 10.8 °C 1020.9 hPa SSE 1.9 km/h   84 % 0 mm
04:14 13.4 °C 10.9 °C 1020.9 hPa SSE 1.9 km/h   85 % 0 mm
04:19 13.3 °C 10.6 °C 1020.9 hPa Calm     84 % 0 mm
04:24 13.1 °C 10.4 °C 1020.9 hPa Calm     84 % 0 mm
04:29 12.9 °C 10.2 °C 1020.9 hPa Calm     84 % 0 mm
04:34 12.7 °C 10.2 °C 1020.9 hPa SSE 6.4 km/h 0.6 km/h 85 % 0 mm
04:39 12.5 °C 10.1 °C 1020.9 hPa Calm     85 % 0 mm
04:44 12.4 °C 10.1 °C 1020.9 hPa Calm     86 % 0 mm
04:49 12.3 °C 10 °C 1020.9 hPa SSE 3.2 km/h 1.8 km/h 86 % 0 mm
04:54 12.1 °C 9.9 °C 1020.9 hPa Calm     87 % 0 mm
04:59 11.9 °C 9.8 °C 1020.9 hPa Calm     87 % 0 mm
05:04 11.9 °C 9.8 °C 1020.9 hPa Calm     87 % 0 mm
05:09 11.8 °C 9.7 °C 1021.2 hPa Calm     87 % 0 mm
05:14 11.7 °C 9.8 °C 1021.2 hPa Calm     88 % 0 mm
05:19 11.7 °C 9.7 °C 1021.2 hPa Calm     88 % 0 mm
05:24 11.6 °C 9.7 °C 1021.2 hPa Calm     88 % 0 mm
05:29 11.5 °C 9.6 °C 1021.2 hPa Calm     88 % 0 mm
05:34 11.5 °C 9.7 °C 1021.2 hPa Calm     89 % 0 mm
05:39 11.4 °C 9.7 °C 1021.2 hPa Calm     89 % 0 mm
05:44 11.4 °C 9.7 °C 1021.2 hPa Calm     89 % 0 mm
05:49 11.3 °C 9.6 °C 1021.2 hPa Calm     89 % 0 mm
05:54 11.3 °C 9.7 °C 1021.6 hPa Calm     90 % 0 mm
05:59 11.3 °C 9.7 °C 1021.6 hPa Calm     90 % 0 mm
06:04 11.3 °C 9.7 °C 1021.6 hPa Calm     90 % 0 mm
06:09 11.3 °C 9.9 °C 1021.6 hPa SSE 5.6 km/h 1.9 km/h 91 % 0 mm
06:14 11.4 °C 9.9 °C 1021.6 hPa SSE 3.7 km/h   91 % 0 mm
06:19 11.4 °C 9.9 °C 1021.6 hPa Calm     91 % 0 mm
06:24 11.4 °C 10 °C 1021.9 hPa Calm     91 % 0 mm
06:29 11.4 °C 9.9 °C 1021.9 hPa SSE 3.7 km/h 3.9 km/h 91 % 0 mm
06:34 11.4 °C 9.9 °C 1021.9 hPa SSE 8 km/h 5.8 km/h 91 % 0 mm
06:39 11.4 °C 10 °C 1021.9 hPa SSE 3.7 km/h 1.3 km/h 91 % 0 mm
06:44 11.3 °C 9.9 °C 1021.9 hPa Calm     91 % 0 mm
06:49 11.3 °C 9.9 °C 1021.9 hPa Calm     91 % 0 mm
06:54 11.2 °C 9.8 °C 1021.9 hPa Calm     91 % 0 mm
06:59 11.2 °C 9.8 °C 1022.2 hPa Calm     91 % 0 mm
07:04 11.2 °C 9.8 °C 1022.2 hPa Calm     91 % 0 mm
07:09 11.1 °C 9.7 °C 1022.2 hPa Calm     91 % 0 mm
07:14 11 °C 9.6 °C 1022.2 hPa Calm     91 % 0 mm
07:19 10.9 °C 9.6 °C 1022.6 hPa Calm     91 % 0 mm
07:24 11 °C 9.6 °C 1022.6 hPa Calm     91 % 0 mm
07:29 11 °C 9.6 °C 1022.6 hPa Calm     91 % 0 mm
07:34 11 °C 9.6 °C 1022.9 hPa Calm     91 % 0 mm
07:39 11 °C 9.7 °C 1022.9 hPa Calm     92 % 0 mm
07:44 11.1 °C 9.8 °C 1022.9 hPa Calm     92 % 0 mm
07:49 11.2 °C 9.9 °C 1022.9 hPa Calm     92 % 0 mm
07:54 11.4 °C 10.1 °C 1022.9 hPa Calm     92 % 0 mm
07:59 11.7 °C 10.6 °C 1022.9 hPa Calm     93 % 0 mm
08:04 12 °C 10.9 °C 1022.9 hPa Calm     93 % 0 mm
08:09 12.3 °C 11.2 °C 1023.2 hPa SSE 3.2 km/h 0.6 km/h 93 % 0 mm
08:14 12.7 °C 11.4 °C 1022.9 hPa SSE 6.4 km/h 4.7 km/h 92 % 0 mm
08:19 13 °C 11.7 °C 1023.2 hPa SSE 6.4 km/h 3.1 km/h 92 % 0 mm
08:24 13.2 °C 11.8 °C 1023.2 hPa SSE 5.6 km/h 3.7 km/h 91 % 0 mm
08:29 13.7 °C 12.1 °C 1023.2 hPa SSE 5.6 km/h 2.4 km/h 90 % 0 mm
08:34 14.1 °C 12.3 °C 1023.2 hPa SSE 3.7 km/h 2.6 km/h 89 % 0 mm
08:39 14.7 °C 12.6 °C 1023.2 hPa SSE 7.4 km/h 6.1 km/h 87 % 0 mm
08:44 15.6 °C 12.6 °C 1023.2 hPa SSE 6.4 km/h 5.6 km/h 82 % 0 mm
08:49 16.6 °C 12.3 °C 1023.6 hPa SE 11.1 km/h 8.7 km/h 76 % 0 mm
08:54 17.5 °C 11.9 °C 1023.6 hPa ESE 13 km/h 9.5 km/h 70 % 0 mm
08:59 18.3 °C 11.9 °C 1023.6 hPa ESE 9.3 km/h 9.3 km/h 66 % 0 mm
09:04 19.1 °C 12.1 °C 1023.6 hPa ESE 9.3 km/h 4.2 km/h 64 % 0 mm
09:09 19.8 °C 11.8 °C 1023.6 hPa East 9.3 km/h 10.5 km/h 60 % 0 mm
09:14 20.7 °C 10.4 °C 1023.6 hPa NNE 25.9 km/h 7.7 km/h 52 % 0 mm
09:19 21.4 °C 10 °C 1023.6 hPa NE 18.5 km/h 13 km/h 48 % 0 mm
09:24 21.8 °C 10 °C 1023.6 hPa NNE 16.7 km/h 7.7 km/h 47 % 0 mm
09:29 22.2 °C 9.7 °C 1023.6 hPa NNE 20.4 km/h 11.7 km/h 45 % 0 mm
09:34 22.5 °C 9.9 °C 1023.6 hPa NNE 20.4 km/h 7.6 km/h 45 % 0 mm
09:39 22.7 °C 9.2 °C 1023.6 hPa NNE 25.9 km/h 17.1 km/h 42 % 0 mm
09:44 22.8 °C 9.6 °C 1023.6 hPa NNE 22.2 km/h 17.2 km/h 43 % 0 mm
09:49 22.9 °C 9.3 °C 1023.6 hPa NNE 24.1 km/h 19.3 km/h 42 % 0 mm
09:54 23.2 °C 9.6 °C 1023.6 hPa NNE 25.9 km/h 17.9 km/h 42 % 0 mm
09:59 23.3 °C 9.3 °C 1023.6 hPa North 27.8 km/h 16.1 km/h 41 % 0 mm
10:04 23.4 °C 9.4 °C 1023.6 hPa North 30.6 km/h 20.3 km/h 41 % 0 mm
10:09 23.4 °C 9.4 °C 1023.6 hPa North 25.9 km/h 16.9 km/h 41 % 0 mm
10:14 23.7 °C 9.6 °C 1023.6 hPa NNE 22.2 km/h 20 km/h 41 % 0 mm
10:19 23.7 °C 9.7 °C 1023.6 hPa NNE 30.6 km/h 22.5 km/h 41 % 0 mm
10:24 23.7 °C 9.7 °C 1023.6 hPa NNE 25.9 km/h 12.1 km/h 41 % 0 mm
10:29 23.8 °C 9.8 °C 1023.6 hPa NE 25.9 km/h 13.8 km/h 41 % 0 mm
10:34 24 °C 9.9 °C 1023.6 hPa NE 22.2 km/h 15 km/h 41 % 0 mm
10:39 24.2 °C 10.1 °C 1023.6 hPa North 22.2 km/h 13 km/h 41 % 0 mm
10:44 24.6 °C 10.1 °C 1023.6 hPa NNE 22.2 km/h 14.3 km/h 40 % 0 mm
10:49 24.6 °C 10.1 °C 1023.6 hPa NNE 20.4 km/h 18.3 km/h 40 % 0 mm
10:54 24.5 °C 9.6 °C 1023.6 hPa NE 22.2 km/h 15 km/h 39 % 0 mm
10:59 24.7 °C 10.2 °C 1023.6 hPa NNE 27.8 km/h 8.9 km/h 40 % 0 mm
11:04 25 °C 10.4 °C 1023.6 hPa North 31.5 km/h 17.4 km/h 40 % 0 mm
11:09 25.3 °C 10.3 °C 1023.6 hPa North 16.1 km/h 13.2 km/h 39 % 0 mm
11:14 25.6 °C 10.6 °C 1023.2 hPa North 18.5 km/h 12.6 km/h 39 % 0 mm
11:19 26.1 °C 10.7 °C 1023.2 hPa North 19.3 km/h 11.7 km/h 38 % 0 mm
11:24 26.1 °C 10.6 °C 1023.2 hPa NNW 19.3 km/h 15.9 km/h 38 % 0 mm
11:29 25.9 °C 10.5 °C 1023.2 hPa NNE 20.4 km/h 13 km/h 38 % 0 mm
11:34 26.1 °C 11.1 °C 1023.2 hPa North 18.5 km/h 11.3 km/h 39 % 0 mm
11:39 26.6 °C 10.7 °C 1023.2 hPa North 22.2 km/h 12.4 km/h 37 % 0 mm
11:44 26.7 °C 10.8 °C 1023.2 hPa NNE 25.7 km/h 14.3 km/h 37 % 0 mm
11:49 26.6 °C 10.7 °C 1023.2 hPa NNE 24.1 km/h 12.4 km/h 37 % 0 mm
11:54 26.8 °C 10.4 °C 1023.2 hPa NNE 20.4 km/h 14.3 km/h 36 % 0 mm
11:59 26.8 °C 10.5 °C 1022.9 hPa North 14.8 km/h 13.7 km/h 36 % 0 mm
12:04 26.9 °C 10.6 °C 1022.9 hPa NNE 17.7 km/h 16.3 km/h 36 % 0 mm
12:09 27.1 °C 10.7 °C 1022.9 hPa NNE 18.5 km/h 11.7 km/h 36 % 0 mm
12:14 27.3 °C 10.1 °C 1022.9 hPa NNE 20.4 km/h 17.1 km/h 34 % 0 mm
12:19 27.4 °C 10.6 °C 1022.9 hPa NE 16.7 km/h 10.5 km/h 35 % 0 mm
12:24 27.4 °C 10.2 °C 1022.9 hPa ENE 29.6 km/h 16.7 km/h 34 % 0 mm
12:29 27.4 °C 10.6 °C 1022.9 hPa NNE 29 km/h 15.6 km/h 35 % 0 mm
12:34 27.7 °C 10.4 °C 1022.9 hPa North 18.5 km/h 16.3 km/h 34 % 0 mm
12:39 27.9 °C 10.2 °C 1022.6 hPa North 29.6 km/h 15.4 km/h 33 % 0 mm
12:44 28.1 °C 10.3 °C 1022.6 hPa North 22.2 km/h 12.2 km/h 33 % 0 mm
12:49 28.2 °C 10.4 °C 1022.6 hPa NNE 24.1 km/h 7.2 km/h 33 % 0 mm
12:54 28.6 °C 10.2 °C 1022.6 hPa North 20.4 km/h 15.4 km/h 32 % 0 mm
12:59 28.3 °C 10.1 °C 1022.6 hPa NNE 25.7 km/h 15 km/h 32 % 0 mm
13:04 28.4 °C 10.2 °C 1022.6 hPa NNW 22.2 km/h 12.2 km/h 32 % 0 mm
13:09 28.5 °C 10.2 °C 1022.2 hPa NNW 18.5 km/h 15 km/h 32 % 0 mm
13:14 28.4 °C 10.2 °C 1022.2 hPa NNE 22.2 km/h 15.9 km/h 32 % 0 mm
13:19 28.7 °C 10.4 °C 1022.2 hPa North 19.3 km/h 21.1 km/h 32 % 0 mm
13:24 28.9 °C 10.1 °C 1022.2 hPa North 13 km/h 9.2 km/h 31 % 0 mm
13:29 29.3 °C 9.9 °C 1022.2 hPa NE 14.8 km/h 10.9 km/h 30 % 0 mm
13:34 29.5 °C 10.1 °C 1022.2 hPa North 11.1 km/h 10.5 km/h 30 % 0 mm
13:39 29.7 °C 10.3 °C 1021.9 hPa NNE 18.5 km/h 14.6 km/h 30 % 0 mm
13:44 29.7 °C 10.7 °C 1021.9 hPa NE 20.4 km/h 15.8 km/h 31 % 0 mm
13:49 29.6 °C 10.2 °C 1021.9 hPa North 24.1 km/h 10 km/h 30 % 0 mm
13:54 29.7 °C 9.7 °C 1021.9 hPa NNW 22.2 km/h 15.9 km/h 29 % 0 mm
13:59 29.6 °C 10.2 °C 1021.9 hPa NNE 13 km/h 14.3 km/h 30 % 0 mm
14:04 29.7 °C 9.7 °C 1021.9 hPa NNW 22.2 km/h 12.2 km/h 29 % 0 mm
14:09 29.7 °C 10.2 °C 1021.9 hPa North 20.4 km/h 10.3 km/h 30 % 0 mm
14:14 29.8 °C 9.3 °C 1021.9 hPa NNW 24.1 km/h 14.5 km/h 28 % 0 mm
Ararat Weather
Compliments of Weather Underground - 1.5 mb
Click here to send mail.


ABOUT

Live weather data from Ararat, Victoria, Australia, 3377
Data uploaded from Cumulus every 5 minutes to Weather Underground.
This site then downloads the raw data for formatting and display.
Metric and imperial data can be displayed. Graphs and historical data available.
Includes Sun and Moon times and rain image live from BOM.

Check out Ararat Weather on Facebook, Twitter and Google +

Help support ongoing costs by checking out the ads





Follow @AraratWeather